Terminal Aerodrome Forecast
Issued by NWS

Home | Current Version | Previous Version | Text Only | Print | Product List | Glossary On
Versions: 1 2 3 4 5 6 7 8 9 10 11 12 13 14 15 16 17 18 19 20 21 22 23
000
FTUS45 KSLC 282340
TAFBCE
TAF
KBCE 282340Z 2900/2924 29009KT P6SM SCT060 BKN150
     FM290600 29011KT P6SM FEW040 BKN060
     FM291800 31012G18KT P6SM SCT060=

USA.gov is the U.S. government's official web portal to all federal, state and local government web resources and services.